sensor_id;sensor_type;location;lat;lon;timestamp;pressure;altitude;pressure_sealevel;temperature;humidity
45255;BME280;30989;52.078;21.014;2024-01-10T00:00:13;161173.19;;;-9.88;100.00
45255;BME280;30989;52.078;21.014;2024-01-10T00:02:39;161160.00;;;-9.93;100.00
45255;BME280;30989;52.078;21.014;2024-01-10T00:05:04;161166.59;;;-9.90;100.00
45255;BME280;30989;52.078;21.014;2024-01-10T00:07:30;161163.97;;;-9.91;100.00
45255;BME280;30989;52.078;21.014;2024-01-10T00:09:55;161153.41;;;-9.95;100.00
45255;BME280;30989;52.078;21.014;2024-01-10T00:12:22;161152.09;;;-9.96;100.00
45255;BME280;30989;52.078;21.014;2024-01-10T00:14:47;161142.84;;;-9.99;100.00
45255;BME280;30989;52.078;21.014;2024-01-10T00:17:13;161129.66;;;-10.04;100.00
45255;BME280;30989;52.078;21.014;2024-01-10T00:19:39;161115.16;;;-10.10;100.00
45255;BME280;30989;52.078;21.014;2024-01-10T00:22:04;161117.78;;;-10.09;100.00
45255;BME280;30989;52.078;21.014;2024-01-10T00:24:30;161111.19;;;-10.12;100.00
45255;BME280;30989;52.078;21.014;2024-01-10T00:26:55;161108.56;;;-10.13;100.00
45255;BME280;30989;52.078;21.014;2024-01-10T00:29:20;161113.81;;;-10.11;100.00
45255;BME280;30989;52.078;21.014;2024-01-10T00:31:46;161119.09;;;-10.09;100.00
45255;BME280;30989;52.078;21.014;2024-01-10T00:34:13;161137.56;;;-10.01;100.00
45255;BME280;30989;52.078;21.014;2024-01-10T00:36:38;161134.94;;;-10.02;100.00
45255;BME280;30989;52.078;21.014;2024-01-10T00:39:04;161145.47;;;-9.98;100.00
45255;BME280;30989;52.078;21.014;2024-01-10T00:41:29;161160.00;;;-9.93;100.00
45255;BME280;30989;52.078;21.014;2024-01-10T00:43:54;161175.84;;;-9.87;100.00
45255;BME280;30989;52.078;21.014;2024-01-10T00:46:20;161183.75;;;-9.84;100.00
45255;BME280;30989;52.078;21.014;2024-01-10T00:48:45;161196.94;;;-9.79;100.00
45255;BME280;30989;52.078;21.014;2024-01-10T00:51:11;161182.44;;;-9.84;100.00
45255;BME280;30989;52.078;21.014;2024-01-10T00:53:37;161199.56;;;-9.78;100.00
45255;BME280;30989;52.078;21.014;2024-01-10T00:56:05;161214.09;;;-9.72;100.00
45255;BME280;30989;52.078;21.014;2024-01-10T00:58:30;161236.53;;;-9.63;100.00
45255;BME280;30989;52.078;21.014;2024-01-10T01:00:56;161247.09;;;-9.59;100.00
45255;BME280;30989;52.078;21.014;2024-01-10T01:03:21;161253.69;;;-9.57;100.00
45255;BME280;30989;52.078;21.014;2024-01-10T01:05:46;161265.56;;;-9.52;100.00
45255;BME280;30989;52.078;21.014;2024-01-10T01:08:12;161236.53;;;-9.63;100.00
45255;BME280;30989;52.078;21.014;2024-01-10T01:10:37;161290.63;;;-9.43;100.00
45255;BME280;30989;52.078;21.014;2024-01-10T01:13:03;161295.91;;;-9.40;100.00
45255;BME280;30989;52.078;21.014;2024-01-10T01:15:28;161299.88;;;-9.39;100.00
45255;BME280;30989;52.078;21.014;2024-01-10T01:17:54;161293.28;;;-9.41;100.00
45255;BME280;30989;52.078;21.014;2024-01-10T01:20:19;161303.84;;;-9.37;100.00
45255;BME280;30989;52.078;21.014;2024-01-10T01:22:44;161307.78;;;-9.36;100.00
45255;BME280;30989;52.078;21.014;2024-01-10T01:25:10;161314.38;;;-9.33;100.00
45255;BME280;30989;52.078;21.014;2024-01-10T01:27:35;161314.38;;;-9.33;100.00
45255;BME280;30989;52.078;21.014;2024-01-10T01:30:01;161310.44;;;-9.35;100.00
45255;BME280;30989;52.078;21.014;2024-01-10T01:32:26;161314.38;;;-9.33;100.00
45255;BME280;30989;52.078;21.014;2024-01-10T01:34:52;161318.34;;;-9.32;100.00
45255;BME280;30989;52.078;21.014;2024-01-10T01:37:17;161309.13;;;-9.35;100.00
45255;BME280;30989;52.078;21.014;2024-01-10T01:39:42;161297.22;;;-9.40;100.00
45255;BME280;30989;52.078;21.014;2024-01-10T01:42:08;161264.25;;;-9.53;100.00
45255;BME280;30989;52.078;21.014;2024-01-10T01:44:34;161274.78;;;-9.49;100.00
45255;BME280;30989;52.078;21.014;2024-01-10T01:46:59;161249.72;;;-9.58;100.00
45255;BME280;30989;52.078;21.014;2024-01-10T01:49:25;161253.69;;;-9.57;100.00
45255;BME280;30989;52.078;21.014;2024-01-10T01:51:52;161245.75;;;-9.60;100.00
45255;BME280;30989;52.078;21.014;2024-01-10T01:54:18;161244.44;;;-9.60;100.00
45255;BME280;30989;52.078;21.014;2024-01-10T01:56:45;161237.84;;;-9.63;100.00
45255;BME280;30989;52.078;21.014;2024-01-10T01:59:11;161227.28;;;-9.67;100.00
45255;BME280;30989;52.078;21.014;2024-01-10T02:01:36;161224.66;;;-9.68;100.00
45255;BME280;30989;52.078;21.014;2024-01-10T02:04:02;161227.28;;;-9.67;100.00
45255;BME280;30989;52.078;21.014;2024-01-10T02:06:29;161211.47;;;-9.73;100.00
45255;BME280;30989;52.078;21.014;2024-01-10T02:08:58;161214.09;;;-9.72;100.00
45255;BME280;30989;52.078;21.014;2024-01-10T02:11:24;161227.28;;;-9.67;100.00
45255;BME280;30989;52.078;21.014;2024-01-10T02:13:50;161232.56;;;-9.65;100.00
45255;BME280;30989;52.078;21.014;2024-01-10T02:16:17;161225.97;;;-9.67;100.00
45255;BME280;30989;52.078;21.014;2024-01-10T02:18:43;161232.56;;;-9.65;100.00
45255;BME280;30989;52.078;21.014;2024-01-10T02:21:08;161236.53;;;-9.63;100.00
45255;BME280;30989;52.078;21.014;2024-01-10T02:23:34;161241.81;;;-9.61;100.00
45255;BME280;30989;52.078;21.014;2024-01-10T02:25:59;161237.84;;;-9.63;100.00
45255;BME280;30989;52.078;21.014;2024-01-10T02:28:24;161244.44;;;-9.60;100.00
45255;BME280;30989;52.078;21.014;2024-01-10T02:30:51;161247.09;;;-9.59;100.00
45255;BME280;30989;52.078;21.014;2024-01-10T02:33:18;161240.47;;;-9.62;100.00
45255;BME280;30989;52.078;21.014;2024-01-10T02:35:43;161243.13;;;-9.61;100.00
45255;BME280;30989;52.078;21.014;2024-01-10T02:38:08;161253.69;;;-9.57;100.00
45255;BME280;30989;52.078;21.014;2024-01-10T02:40:34;161261.59;;;-9.54;100.00
45255;BME280;30989;52.078;21.014;2024-01-10T02:42:59;161261.59;;;-9.54;100.00
45255;BME280;30989;52.078;21.014;2024-01-10T02:45:25;161269.53;;;-9.51;100.00
45255;BME280;30989;52.078;21.014;2024-01-10T02:47:50;161266.88;;;-9.52;100.00
45255;BME280;30989;52.078;21.014;2024-01-10T02:50:16;161248.41;;;-9.59;100.00
45255;BME280;30989;52.078;21.014;2024-01-10T02:52:42;161270.84;;;-9.50;100.00
45255;BME280;30989;52.078;21.014;2024-01-10T02:55:08;161272.16;;;-9.50;100.00
45255;BME280;30989;52.078;21.014;2024-01-10T02:57:33;161269.53;;;-9.51;100.00
45255;BME280;30989;52.078;21.014;2024-01-10T02:59:59;161266.88;;;-9.52;100.00
45255;BME280;30989;52.078;21.014;2024-01-10T03:02:24;161258.97;;;-9.55;100.00
45255;BME280;30989;52.078;21.014;2024-01-10T03:04:50;161266.88;;;-9.52;100.00
45255;BME280;30989;52.078;21.014;2024-01-10T03:07:18;161266.88;;;-9.52;100.00
45255;BME280;30989;52.078;21.014;2024-01-10T03:09:44;161257.66;;;-9.55;100.00
45255;BME280;30989;52.078;21.014;2024-01-10T03:12:10;161261.59;;;-9.54;100.00
45255;BME280;30989;52.078;21.014;2024-01-10T03:14:39;161256.31;;;-9.56;100.00
45255;BME280;30989;52.078;21.014;2024-01-10T03:17:05;161249.72;;;-9.58;100.00
45255;BME280;30989;52.078;21.014;2024-01-10T03:19:30;161245.75;;;-9.60;100.00
45255;BME280;30989;52.078;21.014;2024-01-10T03:21:55;161239.16;;;-9.62;100.00
45255;BME280;30989;52.078;21.014;2024-01-10T03:24:21;161211.47;;;-9.73;100.00
45255;BME280;30989;52.078;21.014;2024-01-10T03:26:49;161219.38;;;-9.70;100.00
45255;BME280;30989;52.078;21.014;2024-01-10T03:29:14;161214.09;;;-9.72;100.00
45255;BME280;30989;52.078;21.014;2024-01-10T03:31:40;161208.81;;;-9.74;100.00
45255;BME280;30989;52.078;21.014;2024-01-10T03:34:05;161218.06;;;-9.70;100.00
45255;BME280;30989;52.078;21.014;2024-01-10T03:36:30;161206.19;;;-9.75;100.00
45255;BME280;30989;52.078;21.014;2024-01-10T03:38:56;161211.47;;;-9.73;100.00
45255;BME280;30989;52.078;21.014;2024-01-10T03:41:21;161208.81;;;-9.74;100.00
45255;BME280;30989;52.078;21.014;2024-01-10T03:43:47;161204.84;;;-9.76;100.00
45255;BME280;30989;52.078;21.014;2024-01-10T03:46:13;161216.72;;;-9.71;100.00
45255;BME280;30989;52.078;21.014;2024-01-10T03:48:41;161220.69;;;-9.69;100.00
45255;BME280;30989;52.078;21.014;2024-01-10T03:51:16;161203.53;;;-9.76;100.00
45255;BME280;30989;52.078;21.014;2024-01-10T03:53:42;161224.66;;;-9.68;100.00
45255;BME280;30989;52.078;21.014;2024-01-10T03:56:08;161229.94;;;-9.66;100.00
45255;BME280;30989;52.078;21.014;2024-01-10T03:58:36;161236.53;;;-9.63;100.00
45255;BME280;30989;52.078;21.014;2024-01-10T04:01:11;161228.59;;;-9.66;100.00
45255;BME280;30989;52.078;21.014;2024-01-10T04:03:36;161219.38;;;-9.70;100.00
45255;BME280;30989;52.078;21.014;2024-01-10T04:06:02;161232.56;;;-9.65;100.00
45255;BME280;30989;52.078;21.014;2024-01-10T04:08:28;161237.84;;;-9.63;100.00
45255;BME280;30989;52.078;21.014;2024-01-10T04:10:54;161235.22;;;-9.64;100.00
45255;BME280;30989;52.078;21.014;2024-01-10T04:13:20;161236.53;;;-9.63;100.00
45255;BME280;30989;52.078;21.014;2024-01-10T04:15:45;161195.63;;;-9.79;100.00
45255;BME280;30989;52.078;21.014;2024-01-10T04:18:10;161241.81;;;-9.61;100.00
45255;BME280;30989;52.078;21.014;2024-01-10T04:20:36;161224.66;;;-9.68;100.00
45255;BME280;30989;52.078;21.014;2024-01-10T04:23:01;161237.84;;;-9.63;100.00
45255;BME280;30989;52.078;21.014;2024-01-10T04:25:27;161231.25;;;-9.65;100.00
45255;BME280;30989;52.078;21.014;2024-01-10T04:27:52;161231.25;;;-9.65;100.00
45255;BME280;30989;52.078;21.014;2024-01-10T04:30:18;161215.41;;;-9.71;100.00
45255;BME280;30989;52.078;21.014;2024-01-10T04:32:43;161231.25;;;-9.65;100.00
45255;BME280;30989;52.078;21.014;2024-01-10T04:35:09;161224.66;;;-9.68;100.00
45255;BME280;30989;52.078;21.014;2024-01-10T04:37:35;161214.09;;;-9.72;100.00
45255;BME280;30989;52.078;21.014;2024-01-10T04:40:00;161219.38;;;-9.70;100.00
45255;BME280;30989;52.078;21.014;2024-01-10T04:42:26;161216.72;;;-9.71;100.00
45255;BME280;30989;52.078;21.014;2024-01-10T04:44:51;161198.25;;;-9.78;100.00
45255;BME280;30989;52.078;21.014;2024-01-10T04:47:17;161210.13;;;-9.73;100.00
45255;BME280;30989;52.078;21.014;2024-01-10T04:49:42;161189.03;;;-9.82;99.45
45255;BME280;30989;52.078;21.014;2024-01-10T04:52:10;161207.50;;;-9.74;99.08
45255;BME280;30989;52.078;21.014;2024-01-10T04:54:37;161208.81;;;-9.74;99.66
45255;BME280;30989;52.078;21.014;2024-01-10T04:57:05;161208.81;;;-9.74;99.24
45255;BME280;30989;52.078;21.014;2024-01-10T04:59:31;161210.13;;;-9.73;99.79
45255;BME280;30989;52.078;21.014;2024-01-10T05:01:56;161196.94;;;-9.79;99.87
45255;BME280;30989;52.078;21.014;2024-01-10T05:04:22;161203.53;;;-9.76;99.17
45255;BME280;30989;52.078;21.014;2024-01-10T05:06:47;161206.19;;;-9.75;99.00
45255;BME280;30989;52.078;21.014;2024-01-10T05:09:13;161194.31;;;-9.80;99.54
45255;BME280;30989;52.078;21.014;2024-01-10T05:11:42;161216.72;;;-9.71;99.14
45255;BME280;30989;52.078;21.014;2024-01-10T05:14:07;161219.38;;;-9.70;99.98
45255;BME280;30989;52.078;21.014;2024-01-10T05:16:33;161229.94;;;-9.66;99.65
45255;BME280;30989;52.078;21.014;2024-01-10T05:19:00;161235.22;;;-9.64;99.29
45255;BME280;30989;52.078;21.014;2024-01-10T05:21:29;161227.28;;;-9.67;99.83
45255;BME280;30989;52.078;21.014;2024-01-10T05:23:55;161243.13;;;-9.61;99.94
45255;BME280;30989;52.078;21.014;2024-01-10T05:26:20;161249.72;;;-9.58;100.00
45255;BME280;30989;52.078;21.014;2024-01-10T05:28:46;161252.38;;;-9.57;100.00
45255;BME280;30989;52.078;21.014;2024-01-10T05:31:11;161248.41;;;-9.59;100.00
45255;BME280;30989;52.078;21.014;2024-01-10T05:33:37;161255.00;;;-9.56;100.00
45255;BME280;30989;52.078;21.014;2024-01-10T05:36:03;161237.84;;;-9.63;100.00
45255;BME280;30989;52.078;21.014;2024-01-10T05:38:28;161249.72;;;-9.58;100.00
45255;BME280;30989;52.078;21.014;2024-01-10T05:40:54;161256.31;;;-9.56;100.00
45255;BME280;30989;52.078;21.014;2024-01-10T05:43:19;161247.09;;;-9.59;100.00
45255;BME280;30989;52.078;21.014;2024-01-10T05:45:44;161260.28;;;-9.54;100.00
45255;BME280;30989;52.078;21.014;2024-01-10T05:48:10;161264.25;;;-9.53;100.00
45255;BME280;30989;52.078;21.014;2024-01-10T05:50:36;161261.59;;;-9.54;100.00
45255;BME280;30989;52.078;21.014;2024-01-10T05:53:07;161260.28;;;-9.54;100.00
45255;BME280;30989;52.078;21.014;2024-01-10T05:55:34;161260.28;;;-9.54;100.00
45255;BME280;30989;52.078;21.014;2024-01-10T05:57:59;161261.59;;;-9.54;100.00
45255;BME280;30989;52.078;21.014;2024-01-10T06:00:24;161261.59;;;-9.54;100.00
45255;BME280;30989;52.078;21.014;2024-01-10T06:02:50;161255.00;;;-9.56;100.00
45255;BME280;30989;52.078;21.014;2024-01-10T06:05:15;161261.59;;;-9.54;100.00
45255;BME280;30989;52.078;21.014;2024-01-10T06:07:41;161272.16;;;-9.50;100.00
45255;BME280;30989;52.078;21.014;2024-01-10T06:10:07;161274.78;;;-9.49;100.00
45255;BME280;30989;52.078;21.014;2024-01-10T06:12:32;161272.16;;;-9.50;100.00
45255;BME280;30989;52.078;21.014;2024-01-10T06:14:57;161258.97;;;-9.55;100.00
45255;BME280;30989;52.078;21.014;2024-01-10T06:17:23;161256.31;;;-9.56;100.00
45255;BME280;30989;52.078;21.014;2024-01-10T06:19:49;161269.53;;;-9.51;100.00
45255;BME280;30989;52.078;21.014;2024-01-10T06:22:15;161269.53;;;-9.51;100.00
45255;BME280;30989;52.078;21.014;2024-01-10T06:24:42;161252.38;;;-9.57;100.00
45255;BME280;30989;52.078;21.014;2024-01-10T06:27:07;161264.25;;;-9.53;100.00
45255;BME280;30989;52.078;21.014;2024-01-10T06:29:33;161253.69;;;-9.57;100.00
45255;BME280;30989;52.078;21.014;2024-01-10T06:31:59;161260.28;;;-9.54;100.00
45255;BME280;30989;52.078;21.014;2024-01-10T06:34:29;161262.91;;;-9.53;100.00
45255;BME280;30989;52.078;21.014;2024-01-10T06:36:54;161268.19;;;-9.51;100.00
45255;BME280;30989;52.078;21.014;2024-01-10T06:39:20;161264.25;;;-9.53;100.00
45255;BME280;30989;52.078;21.014;2024-01-10T06:41:48;161274.78;;;-9.49;100.00
45255;BME280;30989;52.078;21.014;2024-01-10T06:44:15;161277.44;;;-9.48;100.00
45255;BME280;30989;52.078;21.014;2024-01-10T06:46:43;161272.16;;;-9.50;100.00
45255;BME280;30989;52.078;21.014;2024-01-10T06:49:09;161272.16;;;-9.50;100.00
45255;BME280;30989;52.078;21.014;2024-01-10T06:51:35;161286.69;;;-9.44;100.00
45255;BME280;30989;52.078;21.014;2024-01-10T06:54:01;161286.69;;;-9.44;100.00
45255;BME280;30989;52.078;21.014;2024-01-10T06:56:32;161285.34;;;-9.45;100.00
45255;BME280;30989;52.078;21.014;2024-01-10T06:58:59;161290.63;;;-9.43;100.00
45255;BME280;30989;52.078;21.014;2024-01-10T07:01:26;161303.84;;;-9.37;100.00
45255;BME280;30989;52.078;21.014;2024-01-10T07:03:52;161288.00;;;-9.44;100.00
45255;BME280;30989;52.078;21.014;2024-01-10T07:06:18;161322.31;;;-9.30;100.00
45255;BME280;30989;52.078;21.014;2024-01-10T07:08:44;161317.03;;;-9.32;100.00
45255;BME280;30989;52.078;21.014;2024-01-10T07:11:12;161335.50;;;-9.25;100.00
45255;BME280;30989;52.078;21.014;2024-01-10T07:13:38;161326.28;;;-9.29;100.00
45255;BME280;30989;52.078;21.014;2024-01-10T07:16:04;161355.31;;;-9.18;100.00
45255;BME280;30989;52.078;21.014;2024-01-10T07:18:29;161357.94;;;-9.17;100.00
45255;BME280;30989;52.078;21.014;2024-01-10T07:20:55;161371.16;;;-9.12;100.00
45255;BME280;30989;52.078;21.014;2024-01-10T07:23:21;161372.47;;;-9.11;100.00
45255;BME280;30989;52.078;21.014;2024-01-10T07:25:48;161390.97;;;-9.04;100.00
45255;BME280;30989;52.078;21.014;2024-01-10T07:28:17;161406.81;;;-8.98;100.00
45255;BME280;30989;52.078;21.014;2024-01-10T07:30:49;161383.03;;;-9.07;100.00
45255;BME280;30989;52.078;21.014;2024-01-10T07:33:14;161412.09;;;-8.96;100.00
45255;BME280;30989;52.078;21.014;2024-01-10T07:35:40;161430.56;;;-8.89;100.00
45255;BME280;30989;52.078;21.014;2024-01-10T07:38:06;161425.28;;;-8.91;100.00
45255;BME280;30989;52.078;21.014;2024-01-10T07:40:35;161446.41;;;-8.83;99.87
45255;BME280;30989;52.078;21.014;2024-01-10T07:43:01;161453.00;;;-8.80;100.00
45255;BME280;30989;52.078;21.014;2024-01-10T07:45:27;161456.97;;;-8.79;100.00
45255;BME280;30989;52.078;21.014;2024-01-10T07:47:52;161438.50;;;-8.86;100.00
45255;BME280;30989;52.078;21.014;2024-01-10T07:50:18;161492.63;;;-8.65;100.00
45255;BME280;30989;52.078;21.014;2024-01-10T07:52:45;161515.09;;;-8.56;99.63
45255;BME280;30989;52.078;21.014;2024-01-10T07:55:12;161532.25;;;-8.50;99.00
45255;BME280;30989;52.078;21.014;2024-01-10T07:57:37;161520.38;;;-8.54;98.69
45255;BME280;30989;52.078;21.014;2024-01-10T08:00:07;161562.63;;;-8.38;98.79
45255;BME280;30989;52.078;21.014;2024-01-10T08:02:38;161578.44;;;-8.32;99.14
45255;BME280;30989;52.078;21.014;2024-01-10T08:05:05;161565.28;;;-8.37;98.50
45255;BME280;30989;52.078;21.014;2024-01-10T08:07:36;161614.09;;;-8.18;99.11
45255;BME280;30989;52.078;21.014;2024-01-10T08:10:07;161615.44;;;-8.18;97.34
45255;BME280;30989;52.078;21.014;2024-01-10T08:12:37;161623.34;;;-8.15;97.82
45255;BME280;30989;52.078;21.014;2024-01-10T08:15:04;161659.03;;;-8.01;98.60
45255;BME280;30989;52.078;21.014;2024-01-10T08:17:31;161659.03;;;-8.01;98.06
45255;BME280;30989;52.078;21.014;2024-01-10T08:19:58;161690.75;;;-7.89;96.42
45255;BME280;30989;52.078;21.014;2024-01-10T08:22:23;161689.44;;;-7.89;97.31
45255;BME280;30989;52.078;21.014;2024-01-10T08:24:49;161726.44;;;-7.75;97.90
45255;BME280;30989;52.078;21.014;2024-01-10T08:27:14;161739.66;;;-7.70;96.89
45255;BME280;30989;52.078;21.014;2024-01-10T08:29:40;161758.16;;;-7.63;97.01
45255;BME280;30989;52.078;21.014;2024-01-10T08:32:05;161772.69;;;-7.57;96.49
45255;BME280;30989;52.078;21.014;2024-01-10T08:34:31;161771.38;;;-7.58;96.75
45255;BME280;30989;52.078;21.014;2024-01-10T08:36:57;161818.97;;;-7.39;96.32
45255;BME280;30989;52.078;21.014;2024-01-10T08:39:25;161837.47;;;-7.32;94.76
45255;BME280;30989;52.078;21.014;2024-01-10T08:41:53;161848.03;;;-7.28;95.32
45255;BME280;30989;52.078;21.014;2024-01-10T08:44:20;161862.59;;;-7.23;94.67
45255;BME280;30989;52.078;21.014;2024-01-10T08:46:46;161879.78;;;-7.16;93.59
45255;BME280;30989;52.078;21.014;2024-01-10T08:49:11;161889.03;;;-7.12;91.40
45255;BME280;30989;52.078;21.014;2024-01-10T08:51:37;161874.50;;;-7.18;91.60
45255;BME280;30989;52.078;21.014;2024-01-10T08:54:02;161882.41;;;-7.15;91.98
45255;BME280;30989;52.078;21.014;2024-01-10T08:56:28;161908.88;;;-7.05;92.55
45255;BME280;30989;52.078;21.014;2024-01-10T08:58:54;161928.72;;;-6.97;92.99
45255;BME280;30989;52.078;21.014;2024-01-10T09:01:19;161944.56;;;-6.91;91.52
45255;BME280;30989;52.078;21.014;2024-01-10T09:03:46;161967.06;;;-6.83;92.25
45255;BME280;30989;52.078;21.014;2024-01-10T09:06:12;161982.94;;;-6.76;88.61
45255;BME280;30989;52.078;21.014;2024-01-10T09:08:42;161981.59;;;-6.77;88.51
45255;BME280;30989;52.078;21.014;2024-01-10T09:11:07;162004.09;;;-6.68;88.52
45255;BME280;30989;52.078;21.014;2024-01-10T09:13:33;161998.81;;;-6.70;87.48
45255;BME280;30989;52.078;21.014;2024-01-10T09:15:59;162002.78;;;-6.69;88.25
45255;BME280;30989;52.078;21.014;2024-01-10T09:18:25;162046.44;;;-6.52;89.95
45255;BME280;30989;52.078;21.014;2024-01-10T09:20:51;162064.94;;;-6.45;90.92
45255;BME280;30989;52.078;21.014;2024-01-10T09:23:16;162083.47;;;-6.38;90.64
45255;BME280;30989;52.078;21.014;2024-01-10T09:25:42;162131.09;;;-6.20;90.54
45255;BME280;30989;52.078;21.014;2024-01-10T09:28:07;162156.25;;;-6.10;90.26
45255;BME280;30989;52.078;21.014;2024-01-10T09:30:33;162186.69;;;-5.98;90.16
45255;BME280;30989;52.078;21.014;2024-01-10T09:32:59;162221.06;;;-5.85;90.18
45255;BME280;30989;52.078;21.014;2024-01-10T09:35:25;162239.59;;;-5.78;88.08
45255;BME280;30989;52.078;21.014;2024-01-10T09:37:51;162244.88;;;-5.76;85.89
45255;BME280;30989;52.078;21.014;2024-01-10T09:40:16;162255.47;;;-5.72;87.40
45255;BME280;30989;52.078;21.014;2024-01-10T09:42:43;162270.03;;;-5.66;89.07
45255;BME280;30989;52.078;21.014;2024-01-10T09:45:10;162292.53;;;-5.58;87.45
45255;BME280;30989;52.078;21.014;2024-01-10T09:47:36;162291.22;;;-5.58;87.68
45255;BME280;30989;52.078;21.014;2024-01-10T09:50:04;162299.16;;;-5.55;87.07
45255;BME280;30989;52.078;21.014;2024-01-10T09:52:34;162297.84;;;-5.56;87.08
45255;BME280;30989;52.078;21.014;2024-01-10T09:55:03;162304.47;;;-5.53;86.57
45255;BME280;30989;52.078;21.014;2024-01-10T09:57:30;162283.28;;;-5.61;86.42
45255;BME280;30989;52.078;21.014;2024-01-10T09:59:56;162295.19;;;-5.57;86.93
45255;BME280;30989;52.078;21.014;2024-01-10T10:02:23;162305.78;;;-5.53;87.10
45255;BME280;30989;52.078;21.014;2024-01-10T10:04:56;162317.69;;;-5.48;87.63
45255;BME280;30989;52.078;21.014;2024-01-10T10:07:26;162332.25;;;-5.42;88.16
45255;BME280;30989;52.078;21.014;2024-01-10T10:09:51;162340.22;;;-5.39;88.38
45255;BME280;30989;52.078;21.014;2024-01-10T10:12:18;162341.53;;;-5.39;89.38
45255;BME280;30989;52.078;21.014;2024-01-10T10:14:44;162377.28;;;-5.25;89.44
45255;BME280;30989;52.078;21.014;2024-01-10T10:17:16;162399.84;;;-5.16;88.92
45255;BME280;30989;52.078;21.014;2024-01-10T10:19:42;162421.03;;;-5.08;88.61
45255;BME280;30989;52.078;21.014;2024-01-10T10:22:10;162434.28;;;-5.03;89.72
45255;BME280;30989;52.078;21.014;2024-01-10T10:24:36;162474.03;;;-4.88;89.89
45255;BME280;30989;52.078;21.014;2024-01-10T10:27:07;162515.09;;;-4.72;90.27
45255;BME280;30989;52.078;21.014;2024-01-10T10:29:36;162577.38;;;-4.48;90.52
45255;BME280;30989;52.078;21.014;2024-01-10T10:32:02;162684.72;;;-4.07;91.18
45255;BME280;30989;52.078;21.014;2024-01-10T10:34:31;162819.94;;;-3.55;89.73
45255;BME280;30989;52.078;21.014;2024-01-10T10:36:58;162945.94;;;-3.07;89.01
45255;BME280;30989;52.078;21.014;2024-01-10T10:39:23;163073.31;;;-2.58;86.67
45255;BME280;30989;52.078;21.014;2024-01-10T10:41:49;163207.38;;;-2.07;86.34
45255;BME280;30989;52.078;21.014;2024-01-10T10:44:18;163346.78;;;-1.54;84.27
45255;BME280;30989;52.078;21.014;2024-01-10T10:46:49;163454.38;;;-1.13;79.15
45255;BME280;30989;52.078;21.014;2024-01-10T10:49:15;163536.78;;;-0.81;83.04
45255;BME280;30989;52.078;21.014;2024-01-10T10:51:43;163633.78;;;-0.44;84.07
45255;BME280;30989;52.078;21.014;2024-01-10T10:54:09;163770.78;;;0.08;80.67
45255;BME280;30989;52.078;21.014;2024-01-10T10:56:35;163863.88;;;0.44;82.42
45255;BME280;30989;52.078;21.014;2024-01-10T10:59:03;163974.28;;;0.86;73.57
45255;BME280;30989;52.078;21.014;2024-01-10T11:01:31;163975.59;;;0.86;68.17
45255;BME280;30989;52.078;21.014;2024-01-10T11:03:57;163923.72;;;0.67;68.78
45255;BME280;30989;52.078;21.014;2024-01-10T11:06:24;163805.34;;;0.21;65.04
45255;BME280;30989;52.078;21.014;2024-01-10T11:08:53;163688.28;;;-0.23;64.76
45255;BME280;30989;52.078;21.014;2024-01-10T11:11:58;163613.84;;;-0.52;70.31
45255;BME280;30989;52.078;21.014;2024-01-10T11:17:18;163671.00;;;-0.30;72.42
45255;BME280;30989;52.078;21.014;2024-01-10T11:23:03;163829.28;;;0.30;71.54
45255;BME280;30989;52.078;21.014;2024-01-10T11:25:35;163857.22;;;0.41;71.27
45255;BME280;30989;52.078;21.014;2024-01-10T11:28:04;163917.06;;;0.64;73.78
45255;BME280;30989;52.078;21.014;2024-01-10T11:30:37;163999.56;;;0.95;75.03
45255;BME280;30989;52.078;21.014;2024-01-10T11:33:19;164090.03;;;1.30;74.07
45255;BME280;30989;52.078;21.014;2024-01-10T11:36:18;164180.56;;;1.65;69.82
45255;BME280;30989;52.078;21.014;2024-01-10T11:38:54;164090.03;;;1.30;60.08
45255;BME280;30989;52.078;21.014;2024-01-10T11:41:25;163976.94;;;0.87;67.75
45255;BME280;30989;52.078;21.014;2024-01-10T11:46:38;163781.41;;;0.12;67.66
45255;BME280;30989;52.078;21.014;2024-01-10T11:49:08;163800.03;;;0.19;70.64
45255;BME280;30989;52.078;21.014;2024-01-10T11:51:35;163826.63;;;0.29;65.34
45255;BME280;30989;52.078;21.014;2024-01-10T11:54:04;163724.19;;;-0.10;63.69
45255;BME280;30989;52.078;21.014;2024-01-10T11:56:41;163645.75;;;-0.40;67.76
45255;BME280;30989;52.078;21.014;2024-01-10T11:59:13;163627.16;;;-0.47;69.14
45255;BME280;30989;52.078;21.014;2024-01-10T12:01:41;163620.50;;;-0.49;71.03
45255;BME280;30989;52.078;21.014;2024-01-10T12:04:07;163627.16;;;-0.47;70.36
45255;BME280;30989;52.078;21.014;2024-01-10T12:06:35;163619.16;;;-0.50;70.93
45255;BME280;30989;52.078;21.014;2024-01-10T12:09:04;163566.00;;;-0.70;71.42
45255;BME280;30989;52.078;21.014;2024-01-10T12:11:40;163474.31;;;-1.05;72.01
45255;BME280;30989;52.078;21.014;2024-01-10T12:14:08;163393.28;;;-1.36;71.02
45255;BME280;30989;52.078;21.014;2024-01-10T12:16:34;163275.09;;;-1.81;70.90
45255;BME280;30989;52.078;21.014;2024-01-10T12:18:59;163164.91;;;-2.23;72.63
45255;BME280;30989;52.078;21.014;2024-01-10T12:21:25;163087.91;;;-2.53;74.86
45255;BME280;30989;52.078;21.014;2024-01-10T12:23:50;163032.19;;;-2.74;75.83
45255;BME280;30989;52.078;21.014;2024-01-10T12:26:18;163005.66;;;-2.84;75.79
45255;BME280;30989;52.078;21.014;2024-01-10T12:28:54;162968.50;;;-2.99;76.75
45255;BME280;30989;52.078;21.014;2024-01-10T12:31:19;162941.97;;;-3.09;77.37
45255;BME280;30989;52.078;21.014;2024-01-10T12:33:48;162919.41;;;-3.17;77.81
45255;BME280;30989;52.078;21.014;2024-01-10T12:36:14;162891.56;;;-3.28;78.15
45255;BME280;30989;52.078;21.014;2024-01-10T12:38:39;162869.00;;;-3.37;79.32
45255;BME280;30989;52.078;21.014;2024-01-10T12:41:05;162865.03;;;-3.38;79.28